Time;durP1;ratioP1;P1;durP2;ratioP2;P2;SDS_P1;SDS_P2;PMS_P1;PMS_P2;Temp;Humidity;BMP_temperature;BMP_pressure;BME280_temperature;BME280_humidity;BME280_pressure;Samples;Min_cycle;Max_cycle;Signal;HPM_P1;HPM_P2
2022/04/30 00:20:22;;;;;;;12.10;11.13;;;14.20;99.90;;;;;;6091319;23;20611;-63
2022/04/30 00:22:49;;;;;;;11.90;11.00;;;14.20;99.90;;;;;;5159045;23;20514;-69
2022/04/30 00:25:16;;;;;;;12.67;11.67;;;14.20;99.90;;;;;;4977612;28;20999;-69
2022/04/30 00:27:43;;;;;;;12.57;11.40;;;14.20;99.90;;;;;;4978532;28;20458;-69
2022/04/30 00:30:11;;;;;;;13.67;12.47;;;14.10;99.90;;;;;;4977780;28;20463;-69
2022/04/30 00:32:39;;;;;;;12.03;10.97;;;14.20;99.90;;;;;;4991798;28;20506;-70
2022/04/30 00:35:07;;;;;;;13.53;12.13;;;14.20;99.90;;;;;;4996968;28;20458;-70
2022/04/30 00:37:35;;;;;;;14.73;12.10;;;14.20;99.90;;;;;;4995601;28;20460;-70
2022/04/30 00:40:02;;;;;;;12.03;10.87;;;14.20;99.90;;;;;;4996628;28;20633;-70
2022/04/30 00:42:28;;;;;;;11.73;10.83;;;14.20;99.90;;;;;;4996030;28;20481;-69
2022/04/30 00:44:55;;;;;;;12.03;11.03;;;14.20;99.90;;;;;;4996436;28;20465;-70
2022/04/30 00:47:22;;;;;;;11.67;10.67;;;14.20;99.90;;;;;;4998058;28;20476;-70
2022/04/30 00:49:49;;;;;;;10.70;9.80;;;14.20;99.90;;;;;;4999384;28;20458;-69
2022/04/30 00:52:17;;;;;;;11.10;10.13;;;14.20;99.90;;;;;;4997872;28;20482;-69
2022/04/30 00:54:50;;;;;;;10.13;9.33;;;14.10;99.90;;;;;;4996668;28;20842;-69
2022/04/30 00:57:22;;;;;;;11.60;10.60;;;14.10;99.90;;;;;;4995796;28;20474;-69
2022/04/30 00:59:58;;;;;;;10.30;9.50;;;14.10;99.90;;;;;;4995621;28;20446;-68
2022/04/30 01:02:27;;;;;;;11.13;10.07;;;14.00;99.90;;;;;;4996826;28;20477;-69
2022/04/30 01:04:54;;;;;;;11.20;10.20;;;14.00;99.90;;;;;;4997439;28;20457;-69
2022/04/30 01:07:21;;;;;;;11.30;10.10;;;13.90;99.90;;;;;;4996320;28;20438;-69
2022/04/30 01:09:53;;;;;;;11.07;10.17;;;13.90;99.90;;;;;;4996261;28;20549;-69
2022/04/30 01:12:19;;;;;;;13.20;10.87;;;13.80;99.90;;;;;;4995936;28;20481;-69
2022/04/30 01:14:47;;;;;;;11.40;10.50;;;13.80;99.90;;;;;;4999368;28;20937;-69
2022/04/30 01:17:14;;;;;;;12.97;11.87;;;13.70;99.90;;;;;;4999089;28;20450;-69
2022/04/30 01:19:43;;;;;;;12.20;11.00;;;13.70;99.90;;;;;;4999431;28;20464;-69
2022/04/30 01:22:11;;;;;;;15.30;12.50;;;13.70;99.90;;;;;;4999041;28;20495;-68
2022/04/30 01:24:40;;;;;;;13.43;12.20;;;13.70;99.90;;;;;;4999275;28;20461;-69
2022/04/30 01:27:08;;;;;;;14.10;12.80;;;13.60;99.90;;;;;;4998909;28;20489;-70
2022/04/30 01:29:36;;;;;;;13.40;12.30;;;13.60;99.90;;;;;;4999417;28;20465;-69
2022/04/30 01:37:36;;;;;;;17.57;13.97;;;13.60;99.90;;;;;;4999143;28;20786;-70
2022/04/30 01:40:06;;;;;;;14.63;13.20;;;13.60;99.90;;;;;;4999000;28;20900;-69
2022/04/30 01:42:36;;;;;;;15.50;14.10;;;13.60;99.90;;;;;;4998534;28;20541;-69
2022/04/30 01:45:05;;;;;;;16.40;14.70;;;13.60;99.90;;;;;;4998847;28;20502;-69
2022/04/30 01:47:35;;;;;;;17.00;14.50;;;13.60;99.90;;;;;;4998723;28;20451;-69
2022/04/30 01:50:02;;;;;;;16.47;14.87;;;13.50;99.90;;;;;;4998769;28;20454;-69
2022/04/30 01:52:29;;;;;;;15.80;14.40;;;13.50;99.90;;;;;;4998643;28;20477;-70
2022/04/30 01:54:56;;;;;;;16.57;14.93;;;13.50;99.90;;;;;;4998437;28;20829;-70
2022/04/30 01:57:26;;;;;;;16.87;15.17;;;13.50;99.90;;;;;;4998977;28;20461;-68
2022/04/30 01:59:53;;;;;;;18.50;15.80;;;13.50;99.90;;;;;;4998838;28;20497;-69
2022/04/30 02:02:22;;;;;;;18.73;16.00;;;13.40;99.90;;;;;;4998264;28;20477;-68
2022/04/30 02:04:49;;;;;;;18.47;15.83;;;13.40;99.90;;;;;;4998110;28;20949;-69
2022/04/30 02:07:17;;;;;;;26.43;15.87;;;13.40;99.90;;;;;;4998570;28;20482;-69
2022/04/30 02:09:43;;;;;;;21.03;17.17;;;13.40;99.90;;;;;;4998351;28;20877;-69
2022/04/30 02:12:10;;;;;;;19.63;17.67;;;13.40;99.90;;;;;;4998471;28;20470;-69
2022/04/30 02:14:44;;;;;;;20.33;16.63;;;13.30;99.90;;;;;;4998196;28;20456;-71
2022/04/30 02:17:13;;;;;;;19.47;16.30;;;13.30;99.90;;;;;;4998370;28;20795;-68
2022/04/30 02:22:27;;;;;;;20.80;16.70;;;13.30;99.90;;;;;;4998089;28;20476;-70
2022/04/30 02:24:54;;;;;;;19.37;17.33;;;13.30;99.90;;;;;;4997914;28;20461;-69
2022/04/30 02:27:22;;;;;;;21.90;18.50;;;13.30;99.90;;;;;;4998150;28;20513;-70
2022/04/30 02:29:50;;;;;;;19.57;17.87;;;13.20;99.90;;;;;;4998097;28;20454;-70
2022/04/30 02:32:17;;;;;;;20.57;18.37;;;13.20;99.90;;;;;;4997754;28;20473;-69
2022/04/30 02:34:44;;;;;;;20.83;18.43;;;13.20;99.90;;;;;;4998278;28;20490;-69
2022/04/30 02:37:13;;;;;;;19.27;17.30;;;13.20;99.90;;;;;;4998041;28;20450;-70
2022/04/30 02:39:40;;;;;;;23.27;18.67;;;13.20;99.90;;;;;;4997796;28;20458;-70
2022/04/30 02:42:07;;;;;;;23.17;19.07;;;13.20;99.90;;;;;;4998145;28;20815;-69
2022/04/30 02:44:34;;;;;;;20.73;18.53;;;13.20;99.90;;;;;;4998094;28;20813;-70
2022/04/30 02:47:02;;;;;;;21.03;18.97;;;13.20;99.90;;;;;;4997691;28;20473;-70
2022/04/30 02:49:28;;;;;;;23.40;19.23;;;13.20;99.90;;;;;;4999827;28;20457;-69
2022/04/30 02:51:55;;;;;;;24.50;20.57;;;13.10;99.90;;;;;;5000344;28;20481;-69
2022/04/30 02:54:22;;;;;;;26.57;21.30;;;13.10;99.90;;;;;;4999527;28;20456;-68
2022/04/30 02:56:48;;;;;;;22.20;20.00;;;13.10;99.90;;;;;;4997777;28;20453;-69
2022/04/30 03:01:59;;;;;;;24.47;20.73;;;13.10;99.90;;;;;;4997397;28;20993;-69
2022/04/30 03:04:27;;;;;;;21.13;17.87;;;13.00;99.90;;;;;;4997584;28;20465;-69
2022/04/30 03:06:54;;;;;;;22.83;20.43;;;13.00;99.90;;;;;;4997161;28;20569;-69
2022/04/30 03:09:21;;;;;;;25.90;20.23;;;13.00;99.90;;;;;;4997159;28;20465;-68
2022/04/30 03:11:48;;;;;;;22.83;20.50;;;13.00;99.90;;;;;;4997464;28;20477;-69
2022/04/30 03:14:15;;;;;;;24.10;20.87;;;12.90;99.90;;;;;;4997437;28;20454;-69
2022/04/30 03:22:13;;;;;;;28.77;22.10;;;12.90;99.90;;;;;;4996733;28;20571;-68
2022/04/30 03:24:40;;;;;;;24.30;21.77;;;12.90;99.90;;;;;;4996907;28;20453;-70
2022/04/30 03:27:06;;;;;;;23.47;21.10;;;12.90;99.90;;;;;;4997253;28;20477;-69
2022/04/30 03:29:33;;;;;;;28.90;21.17;;;12.90;99.90;;;;;;4997095;28;20458;-70
2022/04/30 03:32:01;;;;;;;30.00;25.83;;;12.90;99.90;;;;;;4997082;28;20477;-70
2022/04/30 03:34:32;;;;;;;26.77;22.13;;;12.80;99.90;;;;;;4996378;28;20454;-68
2022/04/30 03:36:59;;;;;;;26.20;22.03;;;12.70;99.90;;;;;;4996506;28;20549;-71
2022/04/30 03:39:26;;;;;;;29.70;23.47;;;12.70;99.90;;;;;;4996706;28;20458;-69
2022/04/30 03:41:53;;;;;;;30.20;22.77;;;12.70;99.90;;;;;;4996274;28;20963;-69
2022/04/30 03:44:19;;;;;;;35.33;23.23;;;12.70;99.90;;;;;;4996879;28;20454;-68
2022/04/30 03:46:46;;;;;;;32.07;23.67;;;12.70;99.90;;;;;;4996754;28;20481;-70
2022/04/30 03:49:13;;;;;;;27.80;24.77;;;12.60;99.90;;;;;;4996630;28;20465;-69
2022/04/30 03:51:41;;;;;;;42.93;27.00;;;12.60;99.90;;;;;;4996280;28;20492;-69
2022/04/30 03:54:08;;;;;;;27.10;24.30;;;12.60;99.90;;;;;;4996628;28;20465;-69
2022/04/30 03:56:35;;;;;;;30.17;23.70;;;12.60;99.90;;;;;;4996589;28;20541;-69
2022/04/30 03:59:02;;;;;;;34.63;24.00;;;12.60;99.90;;;;;;4996572;28;20486;-69
2022/04/30 04:01:29;;;;;;;31.07;23.40;;;12.60;99.90;;;;;;4997587;28;20532;-70
2022/04/30 04:03:56;;;;;;;34.90;26.63;;;12.50;99.90;;;;;;4997211;28;20461;-69
2022/04/30 04:06:23;;;;;;;30.07;25.10;;;12.50;99.90;;;;;;4996586;28;20485;-69
2022/04/30 04:08:52;;;;;;;33.90;25.90;;;12.50;99.90;;;;;;4997102;28;20594;-69
2022/04/30 04:11:20;;;;;;;32.30;26.97;;;12.50;99.90;;;;;;4996353;28;20469;-69
2022/04/30 04:19:18;;;;;;;35.93;30.10;;;12.50;99.90;;;;;;4995735;28;20489;-68
2022/04/30 04:21:45;;;;;;;33.60;27.93;;;12.50;99.90;;;;;;4996485;28;20580;-69
2022/04/30 04:26:57;;;;;;;39.50;28.80;;;12.30;99.90;;;;;;4996029;28;20466;-69
2022/04/30 04:29:24;;;;;;;38.60;29.03;;;12.30;99.90;;;;;;4996111;28;20494;-69
2022/04/30 04:31:51;;;;;;;34.40;27.80;;;12.20;99.90;;;;;;4995732;28;20477;-69
2022/04/30 04:34:17;;;;;;;43.50;28.67;;;12.10;99.90;;;;;;4995387;28;20942;-68
2022/04/30 04:36:44;;;;;;;37.63;28.40;;;12.10;99.90;;;;;;4995622;28;20465;-68
2022/04/30 04:39:14;;;;;;;41.03;30.77;;;12.00;99.90;;;;;;4995997;28;20460;-69
2022/04/30 04:41:42;;;;;;;37.03;28.97;;;12.00;99.90;;;;;;4996372;28;20473;-69
2022/04/30 04:44:10;;;;;;;38.70;29.03;;;12.00;99.90;;;;;;4996896;28;20513;-69
2022/04/30 04:46:38;;;;;;;35.40;29.77;;;12.00;99.90;;;;;;4996965;28;20485;-69
2022/04/30 04:49:06;;;;;;;39.03;29.47;;;11.90;99.90;;;;;;4996263;28;20453;-70
2022/04/30 04:51:34;;;;;;;38.83;27.60;;;11.90;99.90;;;;;;4996542;28;20473;-69
2022/04/30 04:54:01;;;;;;;35.97;29.63;;;11.90;99.90;;;;;;4996063;28;20508;-69
2022/04/30 04:56:29;;;;;;;36.00;30.00;;;12.00;99.90;;;;;;4996154;28;20459;-69
2022/04/30 04:58:56;;;;;;;40.10;29.90;;;12.00;99.90;;;;;;4995410;28;20990;-70
2022/04/30 05:01:23;;;;;;;40.70;28.20;;;12.10;99.90;;;;;;4995313;28;20474;-69
2022/04/30 05:03:50;;;;;;;33.63;29.23;;;12.10;99.90;;;;;;4995473;28;20457;-69
2022/04/30 05:06:16;;;;;;;38.07;29.17;;;12.10;99.90;;;;;;4995237;28;20450;-69
2022/04/30 05:08:43;;;;;;;36.27;29.43;;;12.10;99.90;;;;;;4995171;28;20461;-69
2022/04/30 05:11:10;;;;;;;39.60;28.13;;;12.10;99.90;;;;;;4995403;28;20458;-69
2022/04/30 05:13:38;;;;;;;36.17;28.53;;;12.20;99.90;;;;;;4995492;28;20818;-69
2022/04/30 05:16:06;;;;;;;40.83;28.47;;;12.30;99.90;;;;;;4995456;28;20460;-69
2022/04/30 05:18:32;;;;;;;33.80;26.83;;;12.20;99.90;;;;;;4995321;28;20454;-69
2022/04/30 05:20:59;;;;;;;35.00;28.83;;;12.30;99.90;;;;;;4995479;28;20853;-69
2022/04/30 05:23:26;;;;;;;31.23;27.27;;;12.30;99.90;;;;;;4995334;28;20461;-69
2022/04/30 05:25:54;;;;;;;33.43;29.00;;;12.30;99.90;;;;;;4995236;28;20969;-69
2022/04/30 05:28:21;;;;;;;31.70;27.57;;;12.40;99.90;;;;;;4995100;28;20512;-69
2022/04/30 05:30:49;;;;;;;31.50;26.57;;;12.40;99.90;;;;;;4995391;28;20458;-69
2022/04/30 05:33:15;;;;;;;31.60;28.27;;;12.40;99.90;;;;;;4995060;28;20470;-69
2022/04/30 05:35:42;;;;;;;30.67;27.17;;;12.30;99.90;;;;;;4995723;28;20454;-69
2022/04/30 05:38:09;;;;;;;33.00;27.07;;;12.30;99.90;;;;;;4995195;28;20454;-68
2022/04/30 05:40:35;;;;;;;37.17;26.60;;;12.30;99.90;;;;;;4995235;28;20454;-68
2022/04/30 05:43:03;;;;;;;32.70;25.80;;;12.30;99.90;;;;;;4995448;28;20485;-69
2022/04/30 05:45:30;;;;;;;39.33;29.77;;;12.30;99.90;;;;;;4995188;28;20438;-68
2022/04/30 05:47:58;;;;;;;38.37;29.80;;;12.30;99.90;;;;;;4995000;28;21013;-69
2022/04/30 05:50:25;;;;;;;37.00;28.40;;;12.30;99.90;;;;;;4995208;28;20524;-69
2022/04/30 05:52:52;;;;;;;35.77;28.30;;;12.30;99.90;;;;;;4995239;28;20838;-70
2022/04/30 05:55:19;;;;;;;37.03;29.43;;;12.30;99.90;;;;;;4994986;28;20469;-70
2022/04/30 05:57:46;;;;;;;36.33;29.07;;;12.30;99.90;;;;;;4995318;28;20458;-70
2022/04/30 06:00:14;;;;;;;35.97;29.47;;;12.30;99.90;;;;;;4998002;28;20946;-70
2022/04/30 06:02:41;;;;;;;36.80;28.90;;;12.30;99.90;;;;;;4998937;28;20469;-70
2022/04/30 06:05:09;;;;;;;39.60;30.73;;;12.40;99.90;;;;;;4998620;28;20455;-70
2022/04/30 06:07:36;;;;;;;36.47;28.73;;;12.40;99.90;;;;;;4998796;28;20474;-69
2022/04/30 06:10:05;;;;;;;38.57;29.00;;;12.50;99.90;;;;;;4999242;28;20481;-71
2022/04/30 06:12:34;;;;;;;34.47;27.90;;;12.50;99.90;;;;;;5000266;28;20480;-72
2022/04/30 06:15:01;;;;;;;31.57;27.17;;;12.60;99.90;;;;;;5000676;28;20521;-69
2022/04/30 06:17:28;;;;;;;33.37;29.70;;;12.80;99.90;;;;;;4999495;28;20458;-71
2022/04/30 06:19:54;;;;;;;32.67;27.87;;;12.90;99.90;;;;;;4998759;28;20450;-71
2022/04/30 06:22:23;;;;;;;32.67;28.60;;;12.90;99.90;;;;;;4998216;28;20486;-71
2022/04/30 06:24:49;;;;;;;31.17;27.10;;;12.90;99.90;;;;;;4998732;28;20461;-69
2022/04/30 06:27:16;;;;;;;32.13;27.70;;;12.90;99.90;;;;;;4998136;28;21016;-71
2022/04/30 06:29:43;;;;;;;32.10;28.40;;;13.00;99.90;;;;;;4998527;28;20458;-71
2022/04/30 06:32:10;;;;;;;32.87;28.10;;;13.00;99.90;;;;;;4998568;28;20553;-72
2022/04/30 06:34:36;;;;;;;34.50;30.13;;;13.00;99.90;;;;;;4998577;28;20461;-69
2022/04/30 06:37:03;;;;;;;34.50;28.83;;;13.00;99.90;;;;;;5000013;28;20461;-70
2022/04/30 06:39:32;;;;;;;33.00;27.03;;;12.90;99.90;;;;;;4999958;28;20820;-70
2022/04/30 06:41:58;;;;;;;32.80;29.27;;;12.90;99.90;;;;;;4999770;28;20481;-71
2022/04/30 06:44:25;;;;;;;31.33;28.10;;;12.90;99.90;;;;;;4999749;28;20454;-70
2022/04/30 06:46:52;;;;;;;32.40;27.70;;;12.90;99.90;;;;;;4998437;28;20465;-71
2022/04/30 06:49:18;;;;;;;31.30;27.60;;;12.90;99.90;;;;;;4997776;28;20948;-70
2022/04/30 06:51:46;;;;;;;31.67;28.20;;;12.90;99.90;;;;;;4997909;28;20482;-71
2022/04/30 06:57:16;;;;;;;29.83;26.60;;;12.90;99.90;;;;;;4938157;29;20650;-71
2022/04/30 06:59:44;;;;;;;35.20;28.97;;;12.90;99.90;;;;;;4937546;29;20982;-71
2022/04/30 07:02:17;;;;;;;32.13;26.80;;;13.00;99.90;;;;;;4966080;28;20569;-71
2022/04/30 07:04:46;;;;;;;33.90;28.93;;;13.00;99.90;;;;;;4997714;28;20843;-71
2022/04/30 07:07:15;;;;;;;31.20;28.07;;;13.00;99.90;;;;;;5003954;28;20482;-71
2022/04/30 07:09:42;;;;;;;29.17;26.13;;;13.00;99.90;;;;;;5006189;28;20466;-71
2022/04/30 07:12:13;;;;;;;29.73;26.20;;;13.00;99.90;;;;;;5002698;28;20470;-71
2022/04/30 07:14:41;;;;;;;30.10;26.87;;;13.10;99.90;;;;;;5000977;28;20510;-69
2022/04/30 07:17:09;;;;;;;31.70;26.43;;;13.20;99.90;;;;;;5000184;28;20453;-70
2022/04/30 07:19:36;;;;;;;29.47;26.37;;;13.30;99.90;;;;;;5000465;28;20458;-70
2022/04/30 07:22:04;;;;;;;29.10;26.10;;;13.30;99.90;;;;;;4998490;28;20493;-70
2022/04/30 07:24:31;;;;;;;28.33;25.53;;;13.40;99.90;;;;;;4999223;28;20465;-70
2022/04/30 07:26:59;;;;;;;28.17;25.17;;;13.40;99.90;;;;;;4998382;28;20477;-71
2022/04/30 07:29:25;;;;;;;27.20;24.50;;;13.40;99.90;;;;;;4997749;28;20438;-70
2022/04/30 07:31:54;;;;;;;26.13;23.63;;;13.50;99.90;;;;;;4998226;28;20880;-70
2022/04/30 07:34:20;;;;;;;27.73;25.03;;;13.50;99.90;;;;;;4997857;28;20449;-71
2022/04/30 07:36:47;;;;;;;26.00;22.80;;;13.50;99.90;;;;;;4998462;28;20443;-70
2022/04/30 07:39:14;;;;;;;29.40;25.40;;;13.50;99.90;;;;;;4997555;28;20445;-70
2022/04/30 07:41:41;;;;;;;26.50;23.67;;;13.40;99.90;;;;;;4997563;28;20516;-71
2022/04/30 07:44:08;;;;;;;26.30;23.03;;;13.50;99.90;;;;;;4997336;28;20454;-72
2022/04/30 07:46:36;;;;;;;26.03;23.37;;;13.50;99.90;;;;;;4997419;28;20908;-71
2022/04/30 07:49:04;;;;;;;25.37;22.83;;;13.50;99.90;;;;;;4997606;28;20482;-71
2022/04/30 07:51:42;;;;;;;25.63;22.83;;;13.50;99.90;;;;;;4998187;28;20529;-71
2022/04/30 07:54:09;;;;;;;23.80;21.50;;;13.50;99.90;;;;;;4997332;28;20448;-71
2022/04/30 07:56:36;;;;;;;24.10;21.67;;;13.50;99.90;;;;;;4997133;28;20438;-71
2022/04/30 07:59:03;;;;;;;23.93;21.53;;;13.50;99.90;;;;;;4996987;28;20461;-71
2022/04/30 08:01:30;;;;;;;23.80;21.27;;;13.50;99.90;;;;;;4998306;28;20489;-71
2022/04/30 08:03:56;;;;;;;25.07;22.40;;;13.40;99.90;;;;;;4997004;28;20445;-70
2022/04/30 08:06:25;;;;;;;23.80;21.40;;;13.40;99.90;;;;;;4997370;28;20458;-71
2022/04/30 08:08:52;;;;;;;24.20;21.70;;;13.40;99.90;;;;;;4997472;28;20477;-70
2022/04/30 08:11:18;;;;;;;23.67;21.47;;;13.40;99.90;;;;;;4996480;28;20965;-71
2022/04/30 08:13:45;;;;;;;24.53;20.97;;;13.40;99.90;;;;;;4996682;28;20490;-71
2022/04/30 08:16:12;;;;;;;23.23;21.00;;;13.40;99.90;;;;;;4996847;28;20465;-71
2022/04/30 08:18:39;;;;;;;23.30;21.10;;;13.40;99.90;;;;;;4996587;28;20445;-72
2022/04/30 08:21:12;;;;;;;23.40;21.23;;;13.40;99.90;;;;;;4996925;28;20462;-71
2022/04/30 08:23:40;;;;;;;24.00;21.70;;;13.30;99.90;;;;;;4996427;28;20434;-71
2022/04/30 08:26:07;;;;;;;23.80;21.30;;;13.40;99.90;;;;;;4996763;28;20951;-70
2022/04/30 08:28:33;;;;;;;22.33;20.03;;;13.40;99.90;;;;;;4997196;28;20473;-71
2022/04/30 08:31:00;;;;;;;23.80;21.43;;;13.40;99.90;;;;;;4997221;28;20533;-71
2022/04/30 08:33:28;;;;;;;22.03;19.87;;;13.50;99.90;;;;;;4997455;28;20533;-71
2022/04/30 08:35:56;;;;;;;22.13;19.90;;;13.60;99.90;;;;;;4996358;28;20453;-71
2022/04/30 08:38:22;;;;;;;22.57;20.30;;;13.60;99.90;;;;;;4997505;28;20589;-71
2022/04/30 08:40:51;;;;;;;24.80;22.30;;;13.50;99.90;;;;;;4996792;28;20444;-69
2022/04/30 08:43:20;;;;;;;23.63;21.23;;;13.50;99.90;;;;;;4998579;28;20482;-71
2022/04/30 08:45:47;;;;;;;22.23;20.13;;;13.50;99.90;;;;;;4999097;28;20950;-72
2022/04/30 08:48:16;;;;;;;21.53;19.47;;;13.60;99.90;;;;;;4998603;28;20493;-73
2022/04/30 08:50:47;;;;;;;24.17;21.73;;;13.60;99.90;;;;;;4998318;28;20461;-74
2022/04/30 08:53:15;;;;;;;23.23;21.13;;;13.40;99.90;;;;;;4997181;28;20478;-73
2022/04/30 08:55:42;;;;;;;23.90;21.60;;;13.30;99.90;;;;;;5005833;28;20522;-73
2022/04/30 08:58:10;;;;;;;24.67;20.43;;;13.40;99.90;;;;;;5006057;28;20438;-73
2022/04/30 09:00:42;;;;;;;21.93;19.90;;;13.50;99.90;;;;;;5005159;28;20465;-72
2022/04/30 09:03:08;;;;;;;22.17;20.13;;;13.50;99.90;;;;;;4997320;28;20505;-73
2022/04/30 09:05:37;;;;;;;21.87;19.87;;;13.50;99.90;;;;;;4996206;28;20461;-73
2022/04/30 09:08:05;;;;;;;20.73;18.93;;;13.50;99.90;;;;;;4995845;28;20489;-73
2022/04/30 09:10:34;;;;;;;21.10;19.30;;;13.50;99.90;;;;;;4996565;28;20529;-73
2022/04/30 09:13:05;;;;;;;23.93;20.20;;;13.50;99.90;;;;;;4995984;28;20481;-72
2022/04/30 09:15:35;;;;;;;21.83;19.90;;;13.60;99.90;;;;;;4996015;28;20454;-73
2022/04/30 09:18:03;;;;;;;19.53;17.67;;;13.60;99.90;;;;;;4997292;28;20454;-73
2022/04/30 09:20:31;;;;;;;18.13;16.53;;;13.60;99.90;;;;;;4996104;28;20970;-76
2022/04/30 09:22:57;;;;;;;18.83;17.23;;;13.70;99.90;;;;;;4995967;28;20485;-75
2022/04/30 09:25:25;;;;;;;19.07;17.27;;;13.80;99.90;;;;;;4995947;28;20457;-68
2022/04/30 09:27:53;;;;;;;17.47;15.77;;;13.90;99.90;;;;;;4995986;28;20466;-75
2022/04/30 09:30:21;;;;;;;18.13;16.60;;;13.90;99.90;;;;;;4995512;28;20817;-72
2022/04/30 09:33:00;;;;;;;17.83;16.23;;;13.90;99.90;;;;;;4995304;28;20544;-74
2022/04/30 09:38:11;;;;;;;13.03;11.80;;;13.80;99.90;;;;;;4999443;28;20408;-75
2022/04/30 09:40:39;;;;;;;13.20;12.20;;;13.80;99.90;;;;;;4999426;28;20438;-75
2022/04/30 09:43:15;;;;;;;13.03;11.73;;;13.70;99.90;;;;;;4999274;28;20498;-74
2022/04/30 09:45:42;;;;;;;11.40;10.50;;;13.80;99.90;;;;;;4999247;28;20433;-71
2022/04/30 09:56:33;;;;;;;13.00;11.90;;;13.60;99.90;;;;;;4998875;28;20410;-73
2022/04/30 09:59:02;;;;;;;13.20;12.10;;;13.50;99.90;;;;;;4998667;28;20776;-74
2022/04/30 10:01:32;;;;;;;11.20;10.20;;;13.50;99.90;;;;;;4998524;28;20485;-72
2022/04/30 10:04:05;;;;;;;12.23;11.30;;;13.40;99.90;;;;;;4998824;28;20434;-75
2022/04/30 10:06:33;;;;;;;11.23;10.33;;;13.40;99.90;;;;;;4999207;28;20434;-75
2022/04/30 10:09:00;;;;;;;11.17;10.27;;;13.40;99.90;;;;;;4998788;28;20466;-74
2022/04/30 10:11:34;;;;;;;10.60;9.80;;;13.40;99.90;;;;;;4999255;28;20532;-75
2022/04/30 10:14:15;;;;;;;11.80;10.70;;;13.40;99.90;;;;;;4998770;28;20500;-75
2022/04/30 10:17:02;;;;;;;12.23;11.23;;;13.30;99.90;;;;;;4998658;28;20445;-75
2022/04/30 10:19:31;;;;;;;11.27;10.37;;;13.30;99.90;;;;;;4998250;28;20947;-75
2022/04/30 10:22:12;;;;;;;11.77;10.73;;;13.40;99.90;;;;;;4998654;28;20481;-75
2022/04/30 10:24:43;;;;;;;11.97;10.90;;;13.30;99.90;;;;;;4998514;28;20485;-76
2022/04/30 10:27:10;;;;;;;10.43;9.63;;;13.30;99.90;;;;;;4998406;28;20454;-75
2022/04/30 10:29:37;;;;;;;11.50;9.97;;;13.30;99.90;;;;;;4998116;28;20473;-75
2022/04/30 10:32:04;;;;;;;10.53;9.70;;;13.20;99.90;;;;;;4998475;28;20480;-72
2022/04/30 10:34:33;;;;;;;10.60;9.60;;;13.20;99.90;;;;;;4998179;28;20500;-74
2022/04/30 10:37:02;;;;;;;9.33;8.63;;;13.10;99.90;;;;;;4998351;28;20489;-74
2022/04/30 10:39:29;;;;;;;8.73;8.13;;;13.10;99.90;;;;;;4997838;28;20508;-73
2022/04/30 10:41:57;;;;;;;7.10;6.60;;;13.00;99.90;;;;;;4998318;28;20481;-73
2022/04/30 10:44:31;;;;;;;8.33;7.63;;;12.90;99.90;;;;;;4998717;28;20537;-74
2022/04/30 10:47:09;;;;;;;8.67;7.97;;;12.90;99.90;;;;;;4998501;28;20452;-75
2022/04/30 10:49:38;;;;;;;7.80;7.27;;;12.90;99.90;;;;;;5005350;28;20544;-74
2022/04/30 10:52:06;;;;;;;8.13;7.53;;;12.90;99.90;;;;;;5009646;28;20477;-73
2022/04/30 10:54:34;;;;;;;8.40;7.80;;;12.90;99.90;;;;;;5003840;28;20939;-73
2022/04/30 10:57:02;;;;;;;8.80;8.13;;;13.00;99.90;;;;;;4997781;28;20462;-73
2022/04/30 10:59:29;;;;;;;8.80;8.20;;;12.90;99.90;;;;;;4997808;28;20477;-74
2022/04/30 11:01:56;;;;;;;7.30;6.80;;;13.00;99.90;;;;;;4997698;28;20469;-73
2022/04/30 11:04:23;;;;;;;8.43;7.73;;;13.00;99.90;;;;;;4997698;28;20461;-73
2022/04/30 11:06:53;;;;;;;7.40;6.90;;;13.00;99.90;;;;;;4997233;28;20442;-74
2022/04/30 11:09:21;;;;;;;7.23;6.73;;;13.00;99.90;;;;;;4996855;28;20999;-74
2022/04/30 11:11:49;;;;;;;6.80;6.30;;;13.10;99.90;;;;;;4998286;28;20478;-73
2022/04/30 11:14:17;;;;;;;7.33;6.63;;;13.10;99.90;;;;;;5001013;28;20465;-72
2022/04/30 11:16:45;;;;;;;5.10;4.70;;;13.20;99.90;;;;;;4998761;28;20512;-73
2022/04/30 11:19:14;;;;;;;5.60;5.30;;;13.30;99.90;;;;;;4997512;28;20875;-73
2022/04/30 11:21:43;;;;;;;6.37;5.97;;;13.40;99.90;;;;;;4997303;28;20485;-74
2022/04/30 11:24:12;;;;;;;5.27;4.97;;;13.50;99.90;;;;;;4997498;28;20507;-74
2022/04/30 11:26:39;;;;;;;5.60;5.27;;;13.40;99.90;;;;;;4997233;28;20477;-74
2022/04/30 11:29:09;;;;;;;5.67;5.33;;;13.60;99.90;;;;;;4996616;28;21033;-74
2022/04/30 11:31:36;;;;;;;6.70;6.30;;;13.70;99.90;;;;;;4997139;28;20481;-74
2022/04/30 11:34:10;;;;;;;5.73;5.33;;;13.80;99.90;;;;;;4996426;28;20951;-74
2022/04/30 11:36:41;;;;;;;7.23;6.63;;;13.90;99.90;;;;;;4996908;28;20454;-75
2022/04/30 11:39:11;;;;;;;7.40;6.70;;;14.00;99.90;;;;;;4996775;28;20449;-75
2022/04/30 11:41:42;;;;;;;6.90;6.40;;;14.00;99.90;;;;;;4998524;28;20470;-74
2022/04/30 11:44:10;;;;;;;6.13;5.73;;;14.00;99.90;;;;;;4997229;28;20962;-75
2022/04/30 11:46:37;;;;;;;7.00;6.30;;;14.20;99.90;;;;;;4997281;28;20461;-71
2022/04/30 11:49:09;;;;;;;6.30;5.90;;;14.40;99.90;;;;;;4997533;28;20544;-75
2022/04/30 11:51:36;;;;;;;7.17;6.67;;;14.50;99.90;;;;;;4996549;28;20550;-74
2022/04/30 11:54:04;;;;;;;6.23;5.90;;;14.60;99.90;;;;;;4995933;28;20446;-74
2022/04/30 11:56:33;;;;;;;6.57;6.17;;;14.80;99.90;;;;;;4995689;28;20997;-74
2022/04/30 11:58:59;;;;;;;5.40;5.10;;;15.00;99.90;;;;;;4996443;28;20458;-74
2022/04/30 12:01:29;;;;;;;6.37;5.97;;;15.00;99.90;;;;;;4995811;28;20842;-73
2022/04/30 12:03:59;;;;;;;7.00;6.40;;;15.00;99.90;;;;;;4996130;28;20460;-74
2022/04/30 12:06:27;;;;;;;5.90;5.57;;;15.00;99.90;;;;;;4996240;28;20473;-74
2022/04/30 12:08:53;;;;;;;6.40;5.90;;;15.00;99.90;;;;;;4995746;28;20504;-74
2022/04/30 12:11:20;;;;;;;6.10;5.70;;;15.00;99.90;;;;;;4996838;28;20461;-75
2022/04/30 12:14:02;;;;;;;5.93;5.53;;;15.10;99.90;;;;;;4999172;28;20454;-73
2022/04/30 12:16:37;;;;;;;6.63;6.13;;;14.90;99.90;;;;;;4999615;28;20442;-75
2022/04/30 12:24:41;;;;;;;5.07;4.77;;;14.60;99.90;;;;;;4996274;28;20526;-73
2022/04/30 12:27:09;;;;;;;5.70;5.37;;;14.50;99.90;;;;;;4995851;28;20537;-73
2022/04/30 12:29:37;;;;;;;5.50;5.20;;;14.50;99.90;;;;;;4995396;28;20484;-74
2022/04/30 12:32:07;;;;;;;7.07;4.60;;;14.50;99.90;;;;;;4996070;28;20478;-74
2022/04/30 12:34:38;;;;;;;5.83;5.50;;;14.40;99.90;;;;;;4995341;28;20512;-74
2022/04/30 12:37:05;;;;;;;6.13;5.70;;;14.40;99.90;;;;;;4996107;28;20442;-72
2022/04/30 12:39:36;;;;;;;7.20;6.80;;;14.30;99.90;;;;;;4998349;28;20457;-72
2022/04/30 12:42:04;;;;;;;6.63;6.13;;;14.20;99.90;;;;;;4996360;28;20521;-72
2022/04/30 12:44:31;;;;;;;6.87;6.30;;;14.20;99.90;;;;;;4996150;28;20520;-73
2022/04/30 12:46:59;;;;;;;7.40;6.90;;;14.40;99.90;;;;;;4996983;28;20450;-73
2022/04/30 12:49:26;;;;;;;7.40;6.93;;;14.40;99.90;;;;;;4996610;28;20478;-72
2022/04/30 12:51:53;;;;;;;9.13;8.43;;;14.40;99.90;;;;;;4997419;28;20478;-73
2022/04/30 12:54:20;;;;;;;8.27;7.70;;;14.40;99.90;;;;;;4996311;28;20462;-73
2022/04/30 12:56:48;;;;;;;9.00;8.30;;;14.40;99.90;;;;;;4995949;28;20457;-73
2022/04/30 12:59:16;;;;;;;9.50;8.80;;;14.30;99.90;;;;;;4996379;28;20450;-73
2022/04/30 13:01:43;;;;;;;10.03;9.33;;;14.20;99.90;;;;;;4999364;28;20474;-73
2022/04/30 13:04:13;;;;;;;10.33;8.63;;;14.20;99.90;;;;;;5000489;28;20481;-73
2022/04/30 13:06:40;;;;;;;9.47;8.77;;;14.20;99.90;;;;;;4997404;28;20825;-73
2022/04/30 13:14:35;;;;;;;10.23;9.37;;;14.20;99.90;;;;;;5001430;28;20422;-73
2022/04/30 13:17:03;;;;;;;12.23;11.03;;;14.30;99.90;;;;;;4998711;28;20951;-73
2022/04/30 13:19:32;;;;;;;11.43;10.53;;;14.30;99.90;;;;;;4995438;28;20454;-73
2022/04/30 13:21:59;;;;;;;12.17;11.17;;;14.20;99.90;;;;;;4995255;28;20514;-73
2022/04/30 13:24:26;;;;;;;13.20;12.10;;;14.20;99.90;;;;;;4995245;28;20517;-73
2022/04/30 13:26:53;;;;;;;13.73;12.67;;;14.20;99.90;;;;;;4995640;28;20513;-73
2022/04/30 13:29:20;;;;;;;13.17;12.07;;;13.90;99.90;;;;;;4995133;28;20481;-74
2022/04/30 13:31:47;;;;;;;14.60;13.40;;;13.80;99.90;;;;;;4995205;28;20474;-73
2022/04/30 13:34:14;;;;;;;14.13;13.00;;;13.60;99.90;;;;;;4995527;28;20481;-73
2022/04/30 13:36:42;;;;;;;15.90;14.50;;;13.50;99.90;;;;;;4995418;28;20458;-73
2022/04/30 13:39:11;;;;;;;16.67;15.27;;;13.40;99.90;;;;;;4995021;28;20520;-73
2022/04/30 13:41:37;;;;;;;16.50;14.97;;;13.30;99.90;;;;;;4994997;28;20911;-73
2022/04/30 13:44:05;;;;;;;16.90;15.30;;;13.20;99.90;;;;;;4995605;28;20458;-73